createdAt,value
2023-05-17T00:00:42.297Z,100156.25
2023-05-17T00:01:44.694Z,100164.39
2023-05-17T00:02:47.121Z,100161.81
2023-05-17T00:03:50.052Z,100166.10
2023-05-17T00:04:52.608Z,100164.39
2023-05-17T00:05:55.106Z,100165.45
2023-05-17T00:06:57.510Z,100163.75
2023-05-17T00:08:00.374Z,100163.02
2023-05-17T00:09:02.728Z,100157.67
2023-05-17T00:10:05.950Z,100162.27
2023-05-17T00:11:08.812Z,100165.05
2023-05-17T00:12:11.150Z,100166.77
2023-05-17T00:13:13.506Z,100165.91
2023-05-17T00:14:16.207Z,100171.27
2023-05-17T00:15:18.604Z,100170.52
2023-05-17T00:16:21.024Z,100166.13
2023-05-17T00:17:23.919Z,100168.05
2023-05-17T00:18:26.518Z,100166.23
2023-05-17T00:19:29.194Z,100164.41
2023-05-17T00:20:32.150Z,100171.69
2023-05-17T00:21:35.080Z,100169.97
2023-05-17T00:22:37.489Z,100171.69
2023-05-17T00:23:39.884Z,100169.97
2023-05-17T00:24:42.207Z,100170.94
2023-05-17T00:25:44.632Z,100161.19
2023-05-17T00:26:47.157Z,100168.36
2023-05-17T00:27:49.474Z,100175.53
2023-05-17T00:28:52.940Z,100176.39
2023-05-17T00:29:55.919Z,100172.03
2023-05-17T00:30:58.336Z,100172.14
2023-05-17T00:32:00.649Z,100176.63
2023-05-17T00:33:03.087Z,100170.42
2023-05-17T00:34:05.471Z,100166.78
2023-05-17T00:35:07.936Z,100172.99
2023-05-17T00:36:11.989Z,100176.63
2023-05-17T00:37:14.383Z,100173.95
2023-05-17T00:38:16.701Z,100177.49
2023-05-17T00:39:19.660Z,100168.50
2023-05-17T00:40:22.498Z,100173.85
2023-05-17T00:41:25.018Z,100166.78
2023-05-17T00:42:27.987Z,100171.28
2023-05-17T00:43:30.612Z,100166.78
2023-05-17T00:44:33.029Z,100171.28
2023-05-17T00:45:35.701Z,100173.09
2023-05-17T00:46:38.220Z,100176.53
2023-05-17T00:47:40.617Z,100177.49
2023-05-17T00:48:43.321Z,100177.49
2023-05-17T00:49:45.821Z,100185.63
2023-05-17T00:50:48.890Z,100176.63
2023-05-17T00:51:52.559Z,100174.92
2023-05-17T00:52:55.929Z,100175.77
2023-05-17T00:53:58.687Z,100171.28
2023-05-17T00:55:01.594Z,100173.85
2023-05-17T00:56:05.098Z,100174.81
2023-05-17T00:57:09.328Z,100175.67
2023-05-17T00:58:12.515Z,100173.95
2023-05-17T00:59:15.454Z,100173.95
2023-05-17T01:00:18.833Z,100178.34
2023-05-17T01:01:21.316Z,100179.20
2023-05-17T01:02:24.528Z,100175.77
2023-05-17T01:03:27.752Z,100176.63
2023-05-17T01:04:30.270Z,100176.63
2023-05-17T01:05:32.907Z,100184.56
2023-05-17T01:06:38.450Z,100181.75
2023-05-17T01:07:42.736Z,100176.39
2023-05-17T01:08:45.096Z,100186.03
2023-05-17T01:09:48.644Z,100181.53
2023-05-17T01:11:15.904Z,100182.39
2023-05-17T01:12:44.667Z,100177.90
2023-05-17T01:14:02.661Z,100178.75
2023-05-17T01:15:16.958Z,100177.69
2023-05-17T01:16:26.830Z,100179.41
2023-05-17T01:17:35.860Z,100168.70
2023-05-17T01:18:41.474Z,100171.48
2023-05-17T01:22:40.311Z,100182.38
2023-05-17T01:24:02.865Z,100181.53
2023-05-17T01:25:28.959Z,100184.97
2023-05-17T01:26:38.854Z,100182.19
2023-05-17T01:27:44.677Z,100178.55
2023-05-17T01:28:51.068Z,100174.91
2023-05-17T01:29:56.353Z,100180.27
2023-05-17T01:31:01.862Z,100175.87
2023-05-17T01:32:06.851Z,100177.69
2023-05-17T01:33:10.136Z,100181.23
2023-05-17T01:34:12.668Z,100185.62
2023-05-17T01:35:16.317Z,100184.66
2023-05-17T01:36:18.832Z,100181.02
2023-05-17T01:37:21.263Z,100174.05
2023-05-17T01:38:25.638Z,100176.73
2023-05-17T01:39:28.106Z,100178.55
2023-05-17T01:40:35.494Z,100186.58
2023-05-17T01:41:43.033Z,100190.11
2023-05-17T01:42:54.866Z,100194.61
2023-05-17T01:45:58.108Z,100190.09
2023-05-17T01:47:04.090Z,100191.18
2023-05-17T01:48:19.062Z,100188.50
2023-05-17T01:49:24.646Z,100188.61
2023-05-17T01:50:30.231Z,100184.22
2023-05-17T01:51:35.765Z,100187.85
2023-05-17T01:52:41.853Z,100186.89
2023-05-17T01:53:47.813Z,100186.03
2023-05-17T01:55:12.075Z,100189.67
2023-05-17T01:57:31.060Z,100183.69
2023-05-17T01:58:37.336Z,100190.88
2023-05-17T01:59:41.726Z,100185.42
2023-05-17T02:00:47.798Z,100184.56
2023-05-17T02:01:53.422Z,100183.80
2023-05-17T02:02:55.990Z,100183.80
2023-05-17T02:03:58.996Z,100190.98
2023-05-17T02:05:01.413Z,100181.12
2023-05-17T02:06:03.958Z,100182.95
2023-05-17T02:07:06.374Z,100183.05
2023-05-17T02:08:08.750Z,100184.77
2023-05-17T02:09:11.069Z,100183.91
2023-05-17T02:10:15.088Z,100183.05
2023-05-17T02:11:18.150Z,100181.23
2023-05-17T02:12:20.501Z,100187.45
2023-05-17T02:13:23.457Z,100187.45
2023-05-17T02:14:25.860Z,100192.80
2023-05-17T02:15:28.402Z,100188.41
2023-05-17T02:16:31.212Z,100190.98
2023-05-17T02:17:33.788Z,100197.19
2023-05-17T02:18:36.904Z,100187.45
2023-05-17T02:19:39.396Z,100195.27
2023-05-17T02:20:42.637Z,100186.24
2023-05-17T02:21:45.287Z,100190.77
2023-05-17T02:22:47.680Z,100194.27
2023-05-17T02:23:50.099Z,100194.27
2023-05-17T02:24:54.285Z,100190.64
2023-05-17T02:25:56.699Z,100198.66
2023-05-17T02:26:59.116Z,100191.39
2023-05-17T02:28:01.803Z,100199.42
2023-05-17T02:29:04.269Z,100194.82
2023-05-17T02:30:07.475Z,100201.03
2023-05-17T02:31:09.980Z,100200.07
2023-05-17T02:32:12.343Z,100192.90
2023-05-17T02:33:14.831Z,100194.61
2023-05-17T02:34:17.305Z,100198.14
2023-05-17T02:35:20.297Z,100204.25
2023-05-17T02:36:22.648Z,100199.76
2023-05-17T02:37:25.083Z,100195.26
2023-05-17T02:38:27.411Z,100199.66
2023-05-17T02:39:31.951Z,100193.34
2023-05-17T02:40:35.053Z,100204.91
2023-05-17T02:41:38.805Z,100209.27
2023-05-17T02:42:41.295Z,100198.45
2023-05-17T02:43:44.076Z,100200.27
2023-05-17T02:44:46.484Z,100201.02
2023-05-17T02:45:50.922Z,100209.81
2023-05-17T02:46:53.655Z,100202.73
2023-05-17T02:47:55.992Z,100206.17
2023-05-17T02:48:58.505Z,100209.59
2023-05-17T02:50:00.784Z,100205.95
2023-05-17T02:51:03.210Z,100204.89
2023-05-17T02:52:05.916Z,100212.06
2023-05-17T02:53:08.419Z,100213.64
2023-05-17T02:54:10.822Z,100206.61
2023-05-17T02:55:13.151Z,100207.46
2023-05-17T02:56:15.702Z,100205.61
2023-05-17T02:57:18.519Z,100211.83
2023-05-17T02:58:20.885Z,100211.72
2023-05-17T02:59:23.276Z,100212.58
2023-05-17T03:00:25.752Z,100211.72
2023-05-17T03:01:29.193Z,100209.90
2023-05-17T03:02:31.813Z,100209.69
2023-05-17T03:03:34.871Z,100212.36
2023-05-17T03:04:38.223Z,100216.00
2023-05-17T03:05:41.277Z,100210.66
2023-05-17T03:06:45.229Z,100218.69
2023-05-17T03:07:48.016Z,100220.40
2023-05-17T03:08:50.315Z,100220.30
2023-05-17T03:09:52.612Z,100215.80
2023-05-17T03:10:55.625Z,100226.52
2023-05-17T03:11:58.081Z,100216.66
2023-05-17T03:13:02.334Z,100220.09
2023-05-17T03:14:06.572Z,100218.27
2023-05-17T03:15:09.566Z,100223.73
2023-05-17T03:16:14.146Z,100214.73
2023-05-17T03:17:16.918Z,100221.05
2023-05-17T03:18:20.394Z,100219.33
2023-05-17T03:19:23.496Z,100224.59
2023-05-17T03:20:26.839Z,100221.83
2023-05-17T03:21:29.197Z,100220.94
2023-05-17T03:22:31.484Z,100220.94
2023-05-17T03:23:34.869Z,100228.91
2023-05-17T03:24:38.272Z,100222.69
2023-05-17T03:25:40.994Z,100221.62
2023-05-17T03:26:43.861Z,100227.80
2023-05-17T03:27:47.819Z,100225.88
2023-05-17T03:28:50.227Z,100225.66
2023-05-17T03:29:53.635Z,100228.23
2023-05-17T03:30:59.638Z,100233.49
2023-05-17T03:32:04.278Z,100228.13
2023-05-17T03:33:07.293Z,100235.95
2023-05-17T03:34:09.954Z,100234.89
2023-05-17T03:35:13.445Z,100239.25
2023-05-17T03:36:18.513Z,100241.07
2023-05-17T03:37:22.028Z,100234.75
2023-05-17T03:38:24.465Z,100237.32
2023-05-17T03:39:27.354Z,100239.89
2023-05-17T03:40:29.817Z,100237.22
2023-05-17T03:41:33.495Z,100237.86
2023-05-17T03:42:36.232Z,100246.75
2023-05-17T03:43:39.536Z,100249.44
2023-05-17T03:44:42.694Z,100251.16
2023-05-17T03:45:46.296Z,100252.87
2023-05-17T03:46:49.638Z,100254.69
2023-05-17T03:47:53.240Z,100252.87
2023-05-17T03:48:55.668Z,100259.09
2023-05-17T03:49:58.075Z,100249.33
2023-05-17T03:51:01.031Z,100245.79
2023-05-17T03:52:03.783Z,100253.83
2023-05-17T03:53:06.442Z,100246.75
2023-05-17T03:54:09.421Z,100251.16
2023-05-17T03:55:12.089Z,100252.01
2023-05-17T03:56:15.230Z,100247.51
2023-05-17T03:57:18.056Z,100252.87
2023-05-17T03:58:20.930Z,100254.69
2023-05-17T03:59:23.908Z,100259.09
2023-05-17T04:00:26.532Z,100252.01
2023-05-17T04:01:31.265Z,100254.58
2023-05-17T04:02:34.194Z,100259.09
2023-05-17T04:03:37.118Z,100261.66
2023-05-17T04:04:39.595Z,100265.20
2023-05-17T04:05:42.391Z,100255.33
2023-05-17T04:06:45.479Z,100265.06
2023-05-17T04:07:47.935Z,100257.77
2023-05-17T04:08:50.390Z,100261.41
2023-05-17T04:09:53.544Z,100264.84
2023-05-17T04:10:56.429Z,100266.56
2023-05-17T04:11:58.985Z,100267.41
2023-05-17T04:13:02.340Z,100269.13
2023-05-17T04:14:04.770Z,100269.99
2023-05-17T04:15:09.112Z,100269.99
2023-05-17T04:16:12.379Z,100262.70
2023-05-17T04:17:16.978Z,100269.78
2023-05-17T04:18:21.426Z,100265.27
2023-05-17T04:19:24.079Z,100278.57
2023-05-17T04:20:27.268Z,100270.42
2023-05-17T04:21:30.469Z,100273.95
2023-05-17T04:22:33.084Z,100265.67
2023-05-17T04:23:35.572Z,100262.98
2023-05-17T04:24:37.963Z,100263.73
2023-05-17T04:25:40.387Z,100269.95
2023-05-17T04:26:43.989Z,100265.34
2023-05-17T04:27:46.368Z,100266.95
2023-05-17T04:28:49.226Z,100273.17
2023-05-17T04:29:52.410Z,100276.71
2023-05-17T04:30:55.559Z,100280.14
2023-05-17T04:31:58.839Z,100282.58
2023-05-17T04:33:01.314Z,100275.28
2023-05-17T04:34:04.403Z,100273.34
2023-05-17T04:35:07.283Z,100282.14
2023-05-17T04:36:11.030Z,100283.86
2023-05-17T04:37:13.863Z,100276.56
2023-05-17T04:38:16.555Z,100279.13
2023-05-17T04:39:21.285Z,100286.96
2023-05-17T04:40:24.046Z,100286.82
2023-05-17T04:41:26.645Z,100285.85
2023-05-17T04:42:29.820Z,100279.52
2023-05-17T04:43:33.754Z,100278.55
2023-05-17T04:44:36.672Z,100275.66
2023-05-17T04:45:39.385Z,100281.88
2023-05-17T04:46:41.901Z,100280.80
2023-05-17T04:47:44.527Z,100287.87
2023-05-17T04:48:47.036Z,100285.95
2023-05-17T04:49:49.592Z,100289.34
2023-05-17T04:50:53.230Z,100287.41
2023-05-17T04:51:56.054Z,100297.17
2023-05-17T04:52:58.617Z,100295.23
2023-05-17T04:54:01.208Z,100283.54
2023-05-17T04:55:04.506Z,100290.51
2023-05-17T04:56:08.130Z,100294.91
2023-05-17T04:57:11.216Z,100287.60
2023-05-17T04:58:18.042Z,100287.49
2023-05-17T04:59:22.646Z,100290.03
2023-05-17T05:00:25.438Z,100295.29
2023-05-17T05:01:30.822Z,100295.10
2023-05-17T05:02:34.625Z,100297.78
2023-05-17T05:03:37.928Z,100296.59
2023-05-17T05:04:41.756Z,100301.96
2023-05-17T05:05:44.528Z,100302.70
2023-05-17T05:06:48.397Z,100298.09
2023-05-17T05:07:51.524Z,100304.17
2023-05-17T05:08:54.305Z,100302.23
2023-05-17T05:09:57.562Z,100304.80
2023-05-17T05:11:01.426Z,100304.69
2023-05-17T05:12:05.855Z,100310.80
2023-05-17T05:13:09.024Z,100307.90
2023-05-17T05:14:11.476Z,100305.95
2023-05-17T05:15:13.863Z,100310.33
2023-05-17T05:16:17.870Z,100302.05
2023-05-17T05:17:21.159Z,100305.48
2023-05-17T05:18:23.697Z,100305.25
2023-05-17T05:19:26.247Z,100301.59
2023-05-17T05:20:29.259Z,100312.11
2023-05-17T05:21:31.912Z,100310.14
2023-05-17T05:22:35.055Z,100301.97
2023-05-17T05:23:37.363Z,100308.94
2023-05-17T05:24:39.885Z,100310.55
2023-05-17T05:25:43.412Z,100305.06
2023-05-17T05:26:46.107Z,100312.03
2023-05-17T05:27:50.252Z,100309.23
2023-05-17T05:28:52.665Z,100307.14
2023-05-17T05:29:55.504Z,100308.73
2023-05-17T05:31:00.215Z,100308.63
2023-05-17T05:32:04.825Z,100310.23
2023-05-17T05:33:09.851Z,100308.28
2023-05-17T05:34:12.902Z,100308.91
2023-05-17T05:35:18.103Z,100313.28
2023-05-17T05:36:20.711Z,100315.73
2023-05-17T05:37:23.125Z,100314.65
2023-05-17T05:38:25.600Z,100318.08
2023-05-17T05:39:29.023Z,100312.59
2023-05-17T05:40:31.887Z,100315.91
2023-05-17T05:41:34.872Z,100314.93
2023-05-17T05:42:37.381Z,100316.38
2023-05-17T05:43:40.432Z,100319.81
2023-05-17T05:44:42.822Z,100325.92
2023-05-17T05:45:45.436Z,100323.86
2023-05-17T05:46:47.923Z,100329.00
2023-05-17T05:47:50.302Z,100325.20
2023-05-17T05:48:53.759Z,100335.75
2023-05-17T05:49:56.255Z,100333.80
2023-05-17T05:50:58.915Z,100328.19
2023-05-17T05:52:01.892Z,100332.48
2023-05-17T05:53:17.225Z,100334.05
2023-05-17T05:54:10.502Z,100331.12
2023-05-17T05:55:14.134Z,100335.41
2023-05-17T05:56:16.625Z,100330.65
2023-05-17T05:57:19.417Z,100332.36
2023-05-17T05:58:21.775Z,100332.95
2023-05-17T05:59:24.850Z,100328.31
2023-05-17T06:00:27.595Z,100337.00
2023-05-17T06:01:31.239Z,100322.58
2023-05-17T06:02:33.701Z,100329.44
2023-05-17T06:03:36.747Z,100330.88
2023-05-17T06:04:45.051Z,100330.64
2023-05-17T06:05:44.014Z,100330.40
2023-05-17T06:06:46.496Z,100327.47
2023-05-17T06:07:48.887Z,100334.45
2023-05-17T06:08:51.257Z,100333.31
2023-05-17T06:09:53.755Z,100333.08
2023-05-17T06:10:56.259Z,100333.81
2023-05-17T06:11:58.584Z,100332.59
2023-05-17T06:13:01.662Z,100332.35
2023-05-17T06:14:04.523Z,100337.46
2023-05-17T06:15:10.876Z,100337.22
2023-05-17T06:16:14.258Z,100335.27
2023-05-17T06:17:16.655Z,100342.12
2023-05-17T06:18:18.993Z,100332.09
2023-05-17T06:19:21.536Z,100332.79
2023-05-17T06:20:24.901Z,100332.67
2023-05-17T06:21:27.291Z,100331.45
2023-05-17T06:22:29.636Z,100334.88
2023-05-17T06:23:32.028Z,100331.08
2023-05-17T06:24:34.312Z,100343.34
2023-05-17T06:25:36.582Z,100334.26
2023-05-17T06:26:39.742Z,100340.25
2023-05-17T06:27:42.422Z,100336.46
2023-05-17T06:28:45.150Z,100341.59
2023-05-17T06:29:47.552Z,100341.35
2023-05-17T06:30:50.281Z,100339.36
2023-05-17T06:31:53.123Z,100345.36
2023-05-17T06:32:56.747Z,100344.25
2023-05-17T06:33:59.790Z,100349.39
2023-05-17T06:35:02.606Z,100351.84
2023-05-17T06:36:05.538Z,100343.63
2023-05-17T06:37:08.396Z,100346.90
2023-05-17T06:38:11.337Z,100342.98
2023-05-17T06:39:14.192Z,100349.83
2023-05-17T06:40:32.127Z,100342.48
2023-05-17T06:41:20.918Z,100351.12
2023-05-17T06:42:23.752Z,100345.63
2023-05-17T06:43:27.088Z,100349.05
2023-05-17T06:44:30.025Z,100347.20
2023-05-17T06:45:32.494Z,100342.55
2023-05-17T06:46:34.817Z,100339.73
2023-05-17T06:47:37.356Z,100343.16
2023-05-17T06:48:40.630Z,100342.87
2023-05-17T06:49:43.192Z,100346.30
2023-05-17T06:50:45.576Z,100344.33
2023-05-17T06:51:47.957Z,100348.61
2023-05-17T06:52:50.201Z,100347.50
2023-05-17T06:53:53.119Z,100348.23
2023-05-17T06:54:55.696Z,100350.80
2023-05-17T06:55:58.422Z,100347.94
2023-05-17T06:57:01.516Z,100342.42
2023-05-17T06:58:03.939Z,100352.09
2023-05-17T06:59:06.317Z,100344.73
2023-05-17T07:00:10.771Z,100347.30
2023-05-17T07:01:13.805Z,100349.88
2023-05-17T07:02:16.735Z,100344.23
2023-05-17T07:03:19.334Z,100340.55
2023-05-17T07:04:21.971Z,100346.67
2023-05-17T07:05:27.894Z,100342.86
2023-05-17T07:06:30.618Z,100345.42
2023-05-17T07:07:33.395Z,100346.03
2023-05-17T07:08:35.881Z,100344.91
2023-05-17T07:09:38.326Z,100342.94
2023-05-17T07:10:40.859Z,100343.64
2023-05-17T07:11:43.421Z,100345.81
2023-05-17T07:12:47.089Z,100342.14
2023-05-17T07:13:50.659Z,100343.59
2023-05-17T07:14:54.654Z,100344.02
2023-05-17T07:15:57.819Z,100341.92
2023-05-17T07:17:00.226Z,100345.21
2023-05-17T07:18:03.165Z,100344.78
2023-05-17T07:19:06.299Z,100350.78
2023-05-17T07:20:09.904Z,100341.44
2023-05-17T07:21:12.441Z,100342.88
2023-05-17T07:22:15.269Z,100341.60
2023-05-17T07:23:17.713Z,100344.76
2023-05-17T07:24:20.531Z,100344.23
2023-05-17T07:25:24.121Z,100345.51
2023-05-17T07:26:26.470Z,100346.69
2023-05-17T07:27:28.689Z,100342.47
2023-05-17T07:28:31.495Z,100345.75
2023-05-17T07:29:33.864Z,100352.46
2023-05-17T07:30:36.873Z,100348.33
2023-05-17T07:31:39.377Z,100337.98
2023-05-17T07:32:41.739Z,100347.94
2023-05-17T07:33:44.504Z,100350.09
2023-05-17T07:34:47.039Z,100339.70
2023-05-17T07:35:49.774Z,100340.88
2023-05-17T07:36:52.292Z,100345.72
2023-05-17T07:37:55.140Z,100354.96
2023-05-17T07:38:58.136Z,100346.30
2023-05-17T07:40:00.652Z,100351.12
2023-05-17T07:41:03.778Z,100347.15
2023-05-17T07:42:07.187Z,100350.56
2023-05-17T07:43:09.620Z,100347.72
2023-05-17T07:44:11.964Z,100345.77
2023-05-17T07:45:14.337Z,100352.03
2023-05-17T07:46:17.777Z,100345.59
2023-05-17T07:47:20.198Z,100343.61
2023-05-17T07:48:22.566Z,100346.03
2023-05-17T07:49:26.713Z,100348.45
2023-05-17T07:50:29.236Z,100340.92
2023-05-17T07:51:32.023Z,100352.00
2023-05-17T07:52:34.408Z,100344.32
2023-05-17T07:53:36.733Z,100349.45
2023-05-17T07:54:39.161Z,100351.70
2023-05-17T07:55:42.736Z,100342.59
2023-05-17T07:56:45.590Z,100352.27
2023-05-17T07:57:48.023Z,100350.42
2023-05-17T07:58:50.415Z,100348.85
2023-05-17T07:59:53.336Z,100353.84
2023-05-17T08:00:56.181Z,100350.28
2023-05-17T08:01:58.654Z,100349.99
2023-05-17T08:03:01.198Z,100356.26
2023-05-17T08:04:03.496Z,100352.38
2023-05-17T08:05:06.809Z,100349.68
2023-05-17T08:06:09.887Z,100351.39
2023-05-17T08:07:12.368Z,100356.80
2023-05-17T08:08:14.699Z,100354.95
2023-05-17T08:09:17.535Z,100354.80
2023-05-17T08:10:20.856Z,100359.36
2023-05-17T08:11:23.269Z,100367.62
2023-05-17T08:12:26.574Z,100362.21
2023-05-17T08:13:28.925Z,100363.92
2023-05-17T08:14:31.209Z,100358.51
2023-05-17T08:15:33.666Z,100361.07
2023-05-17T08:16:37.063Z,100359.22
2023-05-17T08:17:39.558Z,100354.52
2023-05-17T08:18:42.761Z,100356.94
2023-05-17T08:19:45.310Z,100365.06
2023-05-17T08:20:48.071Z,100365.77
2023-05-17T08:21:50.452Z,100363.06
2023-05-17T08:22:54.524Z,100355.95
2023-05-17T08:23:57.067Z,100369.47
2023-05-17T08:24:59.424Z,100361.36
2023-05-17T08:26:04.039Z,100359.65
2023-05-17T08:27:06.554Z,100360.64
2023-05-17T08:28:09.460Z,100364.06
2023-05-17T08:29:11.797Z,100355.95
2023-05-17T08:30:18.099Z,100358.65
2023-05-17T08:31:18.940Z,100352.24
2023-05-17T08:32:21.475Z,100358.37
2023-05-17T08:33:24.378Z,100353.63
2023-05-17T08:34:26.862Z,100366.02
2023-05-17T08:35:29.295Z,100353.34
2023-05-17T08:36:32.242Z,100357.05
2023-05-17T08:37:35.622Z,100356.77
2023-05-17T08:38:38.044Z,100354.77
2023-05-17T08:39:40.492Z,100352.78
2023-05-17T08:40:43.494Z,100363.31
2023-05-17T08:41:49.165Z,100353.34
2023-05-17T08:42:52.241Z,100357.58
2023-05-17T08:43:55.621Z,100356.58
2023-05-17T08:44:58.194Z,100357.30
2023-05-17T08:46:00.956Z,100356.30
2023-05-17T08:47:04.522Z,100362.16
2023-05-17T08:48:07.631Z,100353.05
2023-05-17T08:49:11.849Z,100358.84
2023-05-17T08:50:14.710Z,100355.99
2023-05-17T08:51:19.147Z,100350.14
2023-05-17T08:52:21.865Z,100355.56
2023-05-17T08:53:24.360Z,100356.13
2023-05-17T08:54:27.882Z,100361.22
2023-05-17T08:55:32.534Z,100359.22
2023-05-17T08:56:38.611Z,100362.63
2023-05-17T08:57:41.624Z,100357.92
2023-05-17T08:59:52.911Z,100351.36
2023-05-17T09:00:57.381Z,100363.20
2023-05-17T09:02:00.898Z,100366.61
2023-05-17T09:03:03.915Z,100358.48
2023-05-17T09:04:08.577Z,100359.20
2023-05-17T09:05:11.313Z,100357.48
2023-05-17T09:06:23.041Z,100366.47
2023-05-17T09:07:26.547Z,100365.47
2023-05-17T09:08:29.286Z,100357.48
2023-05-17T09:09:32.685Z,100358.20
2023-05-17T09:10:35.260Z,100359.88
2023-05-17T09:11:38.808Z,100360.58
2023-05-17T09:12:41.364Z,100356.87
2023-05-17T09:13:44.274Z,100364.84
2023-05-17T09:14:47.027Z,100368.41
2023-05-17T09:15:49.946Z,100357.58
2023-05-17T09:16:57.290Z,100361.99
2023-05-17T09:18:00.767Z,100361.84
2023-05-17T09:19:06.011Z,100360.70
2023-05-17T09:20:10.307Z,100365.12
2023-05-17T09:21:14.043Z,100367.67
2023-05-17T09:22:19.758Z,100363.97
2023-05-17T09:23:22.534Z,100364.82
2023-05-17T09:24:29.285Z,100361.08
2023-05-17T09:25:31.824Z,100363.78
2023-05-17T09:27:54.948Z,100356.48
2023-05-17T09:28:57.422Z,100365.82
2023-05-17T09:30:01.055Z,100371.06
2023-05-17T09:31:07.320Z,100367.67
2023-05-17T09:32:18.199Z,100368.53
2023-05-17T09:33:20.630Z,100372.23
2023-05-17T09:34:25.548Z,100365.12
2023-05-17T09:36:43.456Z,100373.33
2023-05-17T09:37:46.733Z,100372.53
2023-05-17T09:40:06.758Z,100367.91
2023-05-17T09:41:09.323Z,100375.09
2023-05-17T09:42:12.376Z,100371.53
2023-05-17T09:43:16.922Z,100369.68
2023-05-17T09:44:19.779Z,100379.66
2023-05-17T09:45:23.084Z,100368.83
2023-05-17T09:46:25.772Z,100367.97
2023-05-17T09:47:31.824Z,100369.83
2023-05-17T09:48:38.001Z,100367.12
2023-05-17T09:49:40.503Z,100368.83
2023-05-17T09:50:46.856Z,100366.97
2023-05-17T09:51:49.838Z,100368.83
2023-05-17T09:52:52.149Z,100368.83
2023-05-17T09:53:54.467Z,100363.41
2023-05-17T09:54:59.371Z,100365.12
2023-05-17T09:56:04.149Z,100371.39
2023-05-17T09:57:06.742Z,100357.70
2023-05-17T09:58:09.159Z,100365.12
2023-05-17T09:59:14.699Z,100362.41
2023-05-17T10:00:19.679Z,100359.70
2023-05-17T10:01:28.055Z,100360.55
2023-05-17T10:02:31.857Z,100358.70
2023-05-17T10:03:36.474Z,100359.70
2023-05-17T10:04:39.981Z,100355.98
2023-05-17T10:05:44.791Z,100357.70
2023-05-17T10:06:52.387Z,100357.70
2023-05-17T10:07:56.425Z,100359.41
2023-05-17T10:09:01.888Z,100353.98
2023-05-17T10:10:06.284Z,100357.37
2023-05-17T10:11:09.757Z,100364.64
2023-05-17T10:12:15.808Z,100369.91
2023-05-17T10:13:21.752Z,100356.52
2023-05-17T10:14:33.698Z,100360.78
2023-05-17T10:15:36.748Z,100355.36
2023-05-17T10:16:40.116Z,100359.78
2023-05-17T10:17:45.403Z,100363.34
2023-05-17T10:18:49.533Z,100360.48
2023-05-17T10:19:53.116Z,100357.62
2023-05-17T10:20:56.889Z,100363.91
2023-05-17T10:22:11.496Z,100359.89
2023-05-17T10:23:06.803Z,100363.61
2023-05-17T10:24:11.770Z,100362.61
2023-05-17T10:25:14.651Z,100355.48
2023-05-17T10:26:18.325Z,100360.90
2023-05-17T10:27:21.522Z,100357.19
2023-05-17T10:28:26.100Z,100361.61
2023-05-17T10:29:29.934Z,100354.14
2023-05-17T10:30:34.843Z,100367.55
2023-05-17T10:31:37.691Z,100356.56
2023-05-17T10:32:40.882Z,100353.00
2023-05-17T10:33:47.249Z,100351.99
2023-05-17T10:34:58.110Z,100364.69
2023-05-17T10:35:56.214Z,100362.84
2023-05-17T10:37:00.819Z,100351.99
2023-05-17T10:38:03.174Z,100350.99
2023-05-17T10:39:06.722Z,100354.70
2023-05-17T10:40:11.207Z,100361.68
2023-05-17T10:41:16.868Z,100355.56
2023-05-17T10:42:22.016Z,100358.97
2023-05-17T10:43:27.087Z,100359.83
2023-05-17T10:44:34.909Z,100358.97
2023-05-17T10:45:37.679Z,100366.10
2023-05-17T10:46:40.362Z,100358.12
2023-05-17T10:47:43.066Z,100364.39
2023-05-17T10:48:47.997Z,100356.41
2023-05-17T10:49:50.822Z,100355.41
2023-05-17T10:51:01.191Z,100352.84
2023-05-17T10:52:12.431Z,100355.56
2023-05-17T10:53:14.695Z,100355.56
2023-05-17T10:54:18.015Z,100361.98
2023-05-17T10:56:33.238Z,100350.28
2023-05-17T10:57:46.791Z,100351.29
2023-05-17T10:58:43.859Z,100351.99
2023-05-17T11:00:00.531Z,100351.14
2023-05-17T11:01:02.837Z,100348.43
2023-05-17T11:02:09.854Z,100351.84
2023-05-17T11:03:20.437Z,100348.13
2023-05-17T11:04:28.349Z,100347.28
2023-05-17T11:05:30.856Z,100353.55
2023-05-17T11:06:36.496Z,100348.98
2023-05-17T11:07:38.883Z,100355.26
2023-05-17T11:09:01.311Z,100345.42
2023-05-17T11:10:12.674Z,100348.98
2023-05-17T11:11:19.106Z,100348.13
2023-05-17T11:12:42.041Z,100348.98
2023-05-17T11:14:56.340Z,100341.52
2023-05-17T11:16:09.451Z,100351.55
2023-05-17T11:17:16.781Z,100344.42
2023-05-17T11:18:30.525Z,100356.97
2023-05-17T11:19:25.623Z,100355.97
2023-05-17T11:20:31.689Z,100353.25
2023-05-17T11:21:34.538Z,100350.55
2023-05-17T11:22:39.316Z,100350.55
2023-05-17T11:23:46.367Z,100349.58
2023-05-17T11:24:54.143Z,100349.58
2023-05-17T11:26:05.701Z,100345.86
2023-05-17T11:27:05.265Z,100346.72
2023-05-17T11:28:10.346Z,100346.72
2023-05-17T11:29:14.640Z,100348.42
2023-05-17T11:30:28.979Z,100349.24
2023-05-17T11:31:34.204Z,100349.24
2023-05-17T11:32:36.509Z,100348.09
2023-05-17T11:34:54.010Z,100349.42
2023-05-17T11:35:56.283Z,100343.23
2023-05-17T11:36:59.232Z,100350.35
2023-05-17T11:38:22.178Z,100346.48
2023-05-17T11:39:24.571Z,100345.48
2023-05-17T11:40:27.657Z,100351.61
2023-05-17T11:41:30.762Z,100349.75
2023-05-17T11:42:37.665Z,100347.71
2023-05-17T11:43:43.493Z,100351.12
2023-05-17T11:44:47.063Z,100346.41
2023-05-17T11:45:55.757Z,100344.55
2023-05-17T11:47:06.129Z,100341.69
2023-05-17T11:48:09.379Z,100343.24
2023-05-17T11:49:17.716Z,100347.51
2023-05-17T11:50:17.570Z,100345.66
2023-05-17T11:51:25.337Z,100347.17
2023-05-17T11:52:29.500Z,100341.59
2023-05-17T11:53:32.705Z,100342.15
2023-05-17T11:54:38.473Z,100343.86
2023-05-17T11:55:42.600Z,100340.99
2023-05-17T11:56:44.932Z,100345.26
2023-05-17T11:57:47.534Z,100339.84
2023-05-17T11:58:53.881Z,100347.81
2023-05-17T12:00:00.773Z,100334.11
2023-05-17T12:01:03.083Z,100338.67
2023-05-17T12:02:06.156Z,100341.20
2023-05-17T12:04:28.358Z,100338.97
2023-05-17T12:05:30.682Z,100336.33
2023-05-17T12:06:33.548Z,100326.33
2023-05-17T12:07:36.420Z,100335.16
2023-05-17T12:08:41.890Z,100332.30
2023-05-17T12:09:45.552Z,100330.44
2023-05-17T12:12:02.872Z,100330.19
2023-05-17T12:13:07.506Z,100326.57
2023-05-17T12:14:10.242Z,100327.42
2023-05-17T12:15:17.202Z,100323.70
2023-05-17T12:16:25.205Z,100331.84
2023-05-17T12:17:33.912Z,100327.08
2023-05-17T12:18:50.960Z,100327.94
2023-05-17T12:19:53.846Z,100323.36
2023-05-17T12:20:58.156Z,100317.78
2023-05-17T12:22:11.475Z,100326.77
2023-05-17T12:23:13.718Z,100323.91
2023-05-17T12:24:16.430Z,100313.91
2023-05-17T12:25:20.186Z,100323.05
2023-05-17T12:26:24.124Z,100317.63